Terminal Aerodrome Forecast
Issued by NWS

Home | Current Version | Previous Version | Graphics & Text | Print | Product List | Glossary On
Versions: 1 2 3 4 5 6 7 8 9 10 11 12 13 14 15 16 17 18 19
000
FTUS43 KBIS 140537
TAFDIK
TAF
KDIK 140537Z 1406/1506 27010KT P6SM BKN200
     FM141100 28014KT P6SM -SN OVC080
     FM141400 29015G23KT 6SM -SN BR SCT035 OVC080
     FM141700 31018G27KT 3SM -SN BLSN SCT020 OVC030
     FM142100 33018G26KT P6SM BKN040
     FM150200 33011KT P6SM FEW250=

USA.gov is the U.S. government's official web portal to all federal, state and local government web resources and services.